sensor_id;sensor_type;location;lat;lon;timestamp;temperature;humidity
10459;DHT22;5277;48.722;8.736;2023-02-04T00:01:51;8.40;99.90
10459;DHT22;5277;48.722;8.736;2023-02-04T00:04:16;8.40;99.90
10459;DHT22;5277;48.722;8.736;2023-02-04T00:06:42;8.40;99.90
10459;DHT22;5277;48.722;8.736;2023-02-04T00:09:07;8.40;99.90
10459;DHT22;5277;48.722;8.736;2023-02-04T00:11:33;8.40;99.90
10459;DHT22;5277;48.722;8.736;2023-02-04T00:13:59;8.50;99.90
10459;DHT22;5277;48.722;8.736;2023-02-04T00:16:24;8.40;99.90
10459;DHT22;5277;48.722;8.736;2023-02-04T00:18:51;8.40;99.90
10459;DHT22;5277;48.722;8.736;2023-02-04T00:21:16;8.40;99.90
10459;DHT22;5277;48.722;8.736;2023-02-04T00:23:42;8.40;99.90
10459;DHT22;5277;48.722;8.736;2023-02-04T00:26:07;8.40;99.90
10459;DHT22;5277;48.722;8.736;2023-02-04T00:28:33;8.40;99.90
10459;DHT22;5277;48.722;8.736;2023-02-04T00:30:58;8.40;99.90
10459;DHT22;5277;48.722;8.736;2023-02-04T00:33:24;8.40;99.90
10459;DHT22;5277;48.722;8.736;2023-02-04T00:35:50;8.40;99.90
10459;DHT22;5277;48.722;8.736;2023-02-04T00:38:16;8.40;99.90
10459;DHT22;5277;48.722;8.736;2023-02-04T00:40:41;8.40;99.90
10459;DHT22;5277;48.722;8.736;2023-02-04T00:43:07;8.40;99.90
10459;DHT22;5277;48.722;8.736;2023-02-04T00:45:32;8.40;99.90
10459;DHT22;5277;48.722;8.736;2023-02-04T00:47:58;8.40;99.90
10459;DHT22;5277;48.722;8.736;2023-02-04T00:50:23;8.30;99.90
10459;DHT22;5277;48.722;8.736;2023-02-04T00:52:49;8.40;99.90
10459;DHT22;5277;48.722;8.736;2023-02-04T00:55:15;8.40;99.90
10459;DHT22;5277;48.722;8.736;2023-02-04T00:57:43;8.40;99.90
10459;DHT22;5277;48.722;8.736;2023-02-04T01:00:09;8.40;99.90
10459;DHT22;5277;48.722;8.736;2023-02-04T01:02:35;8.40;99.90
10459;DHT22;5277;48.722;8.736;2023-02-04T01:05:00;8.40;99.90
10459;DHT22;5277;48.722;8.736;2023-02-04T01:07:26;8.30;99.90
10459;DHT22;5277;48.722;8.736;2023-02-04T01:09:52;8.40;99.90
10459;DHT22;5277;48.722;8.736;2023-02-04T01:12:18;8.40;99.90
10459;DHT22;5277;48.722;8.736;2023-02-04T01:14:43;8.40;99.90
10459;DHT22;5277;48.722;8.736;2023-02-04T01:17:09;8.40;99.90
10459;DHT22;5277;48.722;8.736;2023-02-04T01:19:34;8.30;99.90
10459;DHT22;5277;48.722;8.736;2023-02-04T01:22:00;8.40;99.90
10459;DHT22;5277;48.722;8.736;2023-02-04T01:24:25;8.40;99.90
10459;DHT22;5277;48.722;8.736;2023-02-04T01:26:51;8.30;99.90
10459;DHT22;5277;48.722;8.736;2023-02-04T01:29:16;8.40;99.90
10459;DHT22;5277;48.722;8.736;2023-02-04T01:31:42;8.40;99.90
10459;DHT22;5277;48.722;8.736;2023-02-04T01:34:08;8.40;99.90
10459;DHT22;5277;48.722;8.736;2023-02-04T01:36:33;8.40;99.90
10459;DHT22;5277;48.722;8.736;2023-02-04T01:38:59;8.40;99.90
10459;DHT22;5277;48.722;8.736;2023-02-04T01:41:25;8.40;99.90
10459;DHT22;5277;48.722;8.736;2023-02-04T01:43:51;8.40;99.90
10459;DHT22;5277;48.722;8.736;2023-02-04T01:46:17;8.40;99.90
10459;DHT22;5277;48.722;8.736;2023-02-04T01:48:43;8.40;99.90
10459;DHT22;5277;48.722;8.736;2023-02-04T01:51:11;8.40;99.90
10459;DHT22;5277;48.722;8.736;2023-02-04T01:53:39;8.30;99.90
10459;DHT22;5277;48.722;8.736;2023-02-04T01:56:21;8.30;99.90
10459;DHT22;5277;48.722;8.736;2023-02-04T01:58:47;8.30;99.90
10459;DHT22;5277;48.722;8.736;2023-02-04T02:01:36;8.30;99.90
10459;DHT22;5277;48.722;8.736;2023-02-04T02:04:00;8.30;99.90
10459;DHT22;5277;48.722;8.736;2023-02-04T02:06:27;8.30;99.90
10459;DHT22;5277;48.722;8.736;2023-02-04T02:08:52;8.30;99.90
10459;DHT22;5277;48.722;8.736;2023-02-04T02:11:18;8.30;99.90
10459;DHT22;5277;48.722;8.736;2023-02-04T02:13:44;8.40;99.90
10459;DHT22;5277;48.722;8.736;2023-02-04T02:16:09;8.30;99.90
10459;DHT22;5277;48.722;8.736;2023-02-04T02:18:35;8.30;99.90
10459;DHT22;5277;48.722;8.736;2023-02-04T02:21:05;8.30;99.90
10459;DHT22;5277;48.722;8.736;2023-02-04T02:23:54;8.40;99.90
10459;DHT22;5277;48.722;8.736;2023-02-04T02:26:26;8.30;99.90
10459;DHT22;5277;48.722;8.736;2023-02-04T02:28:52;8.30;99.90
10459;DHT22;5277;48.722;8.736;2023-02-04T02:31:20;8.30;99.90
10459;DHT22;5277;48.722;8.736;2023-02-04T02:33:46;8.30;99.90
10459;DHT22;5277;48.722;8.736;2023-02-04T02:36:12;8.30;99.90
10459;DHT22;5277;48.722;8.736;2023-02-04T02:38:39;8.30;99.90
10459;DHT22;5277;48.722;8.736;2023-02-04T02:41:05;8.30;99.90
10459;DHT22;5277;48.722;8.736;2023-02-04T02:43:34;8.40;99.90
10459;DHT22;5277;48.722;8.736;2023-02-04T02:46:00;8.30;99.90
10459;DHT22;5277;48.722;8.736;2023-02-04T02:48:26;8.40;99.90
10459;DHT22;5277;48.722;8.736;2023-02-04T02:50:53;8.40;99.90
10459;DHT22;5277;48.722;8.736;2023-02-04T02:53:20;8.40;99.90
10459;DHT22;5277;48.722;8.736;2023-02-04T02:55:46;8.40;99.90
10459;DHT22;5277;48.722;8.736;2023-02-04T02:58:27;8.40;99.90
10459;DHT22;5277;48.722;8.736;2023-02-04T03:00:54;8.30;99.90
10459;DHT22;5277;48.722;8.736;2023-02-04T03:03:26;8.30;99.90
10459;DHT22;5277;48.722;8.736;2023-02-04T03:05:56;8.40;99.90
10459;DHT22;5277;48.722;8.736;2023-02-04T03:08:24;8.30;99.90
10459;DHT22;5277;48.722;8.736;2023-02-04T03:10:49;8.30;99.90
10459;DHT22;5277;48.722;8.736;2023-02-04T03:13:16;8.30;99.90
10459;DHT22;5277;48.722;8.736;2023-02-04T03:15:43;8.30;99.90
10459;DHT22;5277;48.722;8.736;2023-02-04T03:18:11;8.30;99.90
10459;DHT22;5277;48.722;8.736;2023-02-04T03:20:38;8.40;99.90
10459;DHT22;5277;48.722;8.736;2023-02-04T03:23:04;8.40;99.90
10459;DHT22;5277;48.722;8.736;2023-02-04T03:25:30;8.50;99.90
10459;DHT22;5277;48.722;8.736;2023-02-04T03:27:57;8.50;99.90
10459;DHT22;5277;48.722;8.736;2023-02-04T03:30:23;8.40;99.90
10459;DHT22;5277;48.722;8.736;2023-02-04T03:32:49;8.30;99.90
10459;DHT22;5277;48.722;8.736;2023-02-04T03:35:16;8.30;99.90
10459;DHT22;5277;48.722;8.736;2023-02-04T03:37:42;8.30;99.90
10459;DHT22;5277;48.722;8.736;2023-02-04T03:40:09;8.40;99.90
10459;DHT22;5277;48.722;8.736;2023-02-04T03:42:34;8.30;99.90
10459;DHT22;5277;48.722;8.736;2023-02-04T03:45:00;8.30;99.90
10459;DHT22;5277;48.722;8.736;2023-02-04T03:47:26;8.30;99.90
10459;DHT22;5277;48.722;8.736;2023-02-04T03:49:51;8.20;99.90
10459;DHT22;5277;48.722;8.736;2023-02-04T03:52:17;8.20;99.90
10459;DHT22;5277;48.722;8.736;2023-02-04T03:54:42;8.20;99.90
10459;DHT22;5277;48.722;8.736;2023-02-04T03:57:08;8.20;99.90
10459;DHT22;5277;48.722;8.736;2023-02-04T03:59:35;8.20;99.90
10459;DHT22;5277;48.722;8.736;2023-02-04T04:02:00;8.20;99.90
10459;DHT22;5277;48.722;8.736;2023-02-04T04:04:26;8.30;99.90
10459;DHT22;5277;48.722;8.736;2023-02-04T04:06:51;8.30;99.90
10459;DHT22;5277;48.722;8.736;2023-02-04T04:09:17;8.30;99.90
10459;DHT22;5277;48.722;8.736;2023-02-04T04:11:42;8.30;99.90
10459;DHT22;5277;48.722;8.736;2023-02-04T04:14:08;8.30;99.90
10459;DHT22;5277;48.722;8.736;2023-02-04T04:16:33;8.30;99.90
10459;DHT22;5277;48.722;8.736;2023-02-04T04:18:59;8.30;99.90
10459;DHT22;5277;48.722;8.736;2023-02-04T04:21:25;8.30;99.90
10459;DHT22;5277;48.722;8.736;2023-02-04T04:23:50;8.30;99.90
10459;DHT22;5277;48.722;8.736;2023-02-04T04:26:16;8.30;99.90
10459;DHT22;5277;48.722;8.736;2023-02-04T04:28:42;8.20;99.90
10459;DHT22;5277;48.722;8.736;2023-02-04T04:31:07;8.20;99.90
10459;DHT22;5277;48.722;8.736;2023-02-04T04:33:33;8.20;99.90
10459;DHT22;5277;48.722;8.736;2023-02-04T04:35:58;8.20;99.90
10459;DHT22;5277;48.722;8.736;2023-02-04T04:38:24;8.20;99.90
10459;DHT22;5277;48.722;8.736;2023-02-04T04:40:49;8.20;99.90
10459;DHT22;5277;48.722;8.736;2023-02-04T04:43:15;8.20;99.90
10459;DHT22;5277;48.722;8.736;2023-02-04T04:45:41;8.20;99.90
10459;DHT22;5277;48.722;8.736;2023-02-04T04:48:06;8.10;99.90
10459;DHT22;5277;48.722;8.736;2023-02-04T04:50:32;8.10;99.90
10459;DHT22;5277;48.722;8.736;2023-02-04T04:52:57;8.10;99.90
10459;DHT22;5277;48.722;8.736;2023-02-04T04:55:23;8.00;99.90
10459;DHT22;5277;48.722;8.736;2023-02-04T04:57:48;7.90;99.90
10459;DHT22;5277;48.722;8.736;2023-02-04T05:00:18;7.90;99.90
10459;DHT22;5277;48.722;8.736;2023-02-04T05:02:45;7.90;99.90
10459;DHT22;5277;48.722;8.736;2023-02-04T05:05:10;8.00;99.90
10459;DHT22;5277;48.722;8.736;2023-02-04T05:07:36;8.00;99.90
10459;DHT22;5277;48.722;8.736;2023-02-04T05:10:02;8.00;99.90
10459;DHT22;5277;48.722;8.736;2023-02-04T05:12:28;8.00;99.90
10459;DHT22;5277;48.722;8.736;2023-02-04T05:14:53;7.90;99.90
10459;DHT22;5277;48.722;8.736;2023-02-04T05:17:19;7.80;99.90
10459;DHT22;5277;48.722;8.736;2023-02-04T05:19:45;7.80;99.90
10459;DHT22;5277;48.722;8.736;2023-02-04T05:22:10;7.80;99.90
10459;DHT22;5277;48.722;8.736;2023-02-04T05:24:36;7.80;99.90
10459;DHT22;5277;48.722;8.736;2023-02-04T05:27:01;7.80;99.90
10459;DHT22;5277;48.722;8.736;2023-02-04T05:29:27;7.80;99.90
10459;DHT22;5277;48.722;8.736;2023-02-04T05:31:53;7.90;99.90
10459;DHT22;5277;48.722;8.736;2023-02-04T05:34:18;7.80;99.90
10459;DHT22;5277;48.722;8.736;2023-02-04T05:36:44;7.80;99.90
10459;DHT22;5277;48.722;8.736;2023-02-04T05:39:09;7.80;99.90
10459;DHT22;5277;48.722;8.736;2023-02-04T05:41:35;7.80;99.90
10459;DHT22;5277;48.722;8.736;2023-02-04T05:44:02;7.80;99.90
10459;DHT22;5277;48.722;8.736;2023-02-04T05:46:28;7.80;99.90
10459;DHT22;5277;48.722;8.736;2023-02-04T05:48:53;7.70;99.90
10459;DHT22;5277;48.722;8.736;2023-02-04T05:51:19;7.70;99.90
10459;DHT22;5277;48.722;8.736;2023-02-04T05:53:44;7.60;99.90
10459;DHT22;5277;48.722;8.736;2023-02-04T05:56:10;7.70;99.90
10459;DHT22;5277;48.722;8.736;2023-02-04T05:58:35;7.70;99.90
10459;DHT22;5277;48.722;8.736;2023-02-04T06:01:02;7.70;99.90
10459;DHT22;5277;48.722;8.736;2023-02-04T06:03:29;7.70;99.90
10459;DHT22;5277;48.722;8.736;2023-02-04T06:05:55;7.60;99.90
10459;DHT22;5277;48.722;8.736;2023-02-04T06:08:21;7.70;99.90
10459;DHT22;5277;48.722;8.736;2023-02-04T06:10:47;7.70;99.90
10459;DHT22;5277;48.722;8.736;2023-02-04T06:13:12;7.60;99.90
10459;DHT22;5277;48.722;8.736;2023-02-04T06:15:38;7.60;99.90
10459;DHT22;5277;48.722;8.736;2023-02-04T06:18:03;7.60;99.90
10459;DHT22;5277;48.722;8.736;2023-02-04T06:20:29;7.60;99.90
10459;DHT22;5277;48.722;8.736;2023-02-04T06:22:55;7.60;99.90
10459;DHT22;5277;48.722;8.736;2023-02-04T06:25:21;7.60;99.90
10459;DHT22;5277;48.722;8.736;2023-02-04T06:27:47;7.60;99.90
10459;DHT22;5277;48.722;8.736;2023-02-04T06:30:13;7.60;99.90
10459;DHT22;5277;48.722;8.736;2023-02-04T06:32:39;7.50;99.90
10459;DHT22;5277;48.722;8.736;2023-02-04T06:35:05;7.50;99.90
10459;DHT22;5277;48.722;8.736;2023-02-04T06:37:30;7.50;99.90
10459;DHT22;5277;48.722;8.736;2023-02-04T06:39:56;7.50;99.90
10459;DHT22;5277;48.722;8.736;2023-02-04T06:42:22;7.50;99.90
10459;DHT22;5277;48.722;8.736;2023-02-04T06:44:49;7.50;99.90
10459;DHT22;5277;48.722;8.736;2023-02-04T06:47:15;7.50;99.90
10459;DHT22;5277;48.722;8.736;2023-02-04T06:49:41;7.50;99.90
10459;DHT22;5277;48.722;8.736;2023-02-04T06:52:07;7.50;99.90
10459;DHT22;5277;48.722;8.736;2023-02-04T06:54:32;7.50;99.90
10459;DHT22;5277;48.722;8.736;2023-02-04T06:56:58;7.50;99.90
10459;DHT22;5277;48.722;8.736;2023-02-04T06:59:32;7.50;99.90
10459;DHT22;5277;48.722;8.736;2023-02-04T07:01:57;7.40;99.90
10459;DHT22;5277;48.722;8.736;2023-02-04T07:04:23;7.40;99.90
10459;DHT22;5277;48.722;8.736;2023-02-04T07:06:48;7.40;99.90
10459;DHT22;5277;48.722;8.736;2023-02-04T07:09:14;7.40;99.90
10459;DHT22;5277;48.722;8.736;2023-02-04T07:11:40;7.40;99.90
10459;DHT22;5277;48.722;8.736;2023-02-04T07:14:05;7.40;99.90
10459;DHT22;5277;48.722;8.736;2023-02-04T07:16:31;7.40;99.90
10459;DHT22;5277;48.722;8.736;2023-02-04T07:18:56;7.40;99.90
10459;DHT22;5277;48.722;8.736;2023-02-04T07:21:22;7.40;99.90
10459;DHT22;5277;48.722;8.736;2023-02-04T07:23:47;7.30;99.90
10459;DHT22;5277;48.722;8.736;2023-02-04T07:26:13;7.40;99.90
10459;DHT22;5277;48.722;8.736;2023-02-04T07:28:38;7.30;99.90
10459;DHT22;5277;48.722;8.736;2023-02-04T07:31:05;7.30;99.90
10459;DHT22;5277;48.722;8.736;2023-02-04T07:33:31;7.30;99.90
10459;DHT22;5277;48.722;8.736;2023-02-04T07:35:57;7.20;99.90
10459;DHT22;5277;48.722;8.736;2023-02-04T07:38:22;7.30;99.90
10459;DHT22;5277;48.722;8.736;2023-02-04T07:40:48;7.30;99.90
10459;DHT22;5277;48.722;8.736;2023-02-04T07:43:13;7.30;99.90
10459;DHT22;5277;48.722;8.736;2023-02-04T07:45:39;7.30;99.90
10459;DHT22;5277;48.722;8.736;2023-02-04T07:48:04;7.30;99.90
10459;DHT22;5277;48.722;8.736;2023-02-04T07:50:30;7.30;99.90
10459;DHT22;5277;48.722;8.736;2023-02-04T07:52:56;7.40;99.90
10459;DHT22;5277;48.722;8.736;2023-02-04T07:55:21;7.40;99.90
10459;DHT22;5277;48.722;8.736;2023-02-04T07:57:47;7.40;99.90
10459;DHT22;5277;48.722;8.736;2023-02-04T08:00:13;7.40;99.90
10459;DHT22;5277;48.722;8.736;2023-02-04T08:02:40;7.30;99.90
10459;DHT22;5277;48.722;8.736;2023-02-04T08:05:07;7.40;99.90
10459;DHT22;5277;48.722;8.736;2023-02-04T08:07:32;7.40;99.90
10459;DHT22;5277;48.722;8.736;2023-02-04T08:09:58;7.40;99.90
10459;DHT22;5277;48.722;8.736;2023-02-04T08:12:24;7.40;99.90
10459;DHT22;5277;48.722;8.736;2023-02-04T08:14:49;7.50;99.90
10459;DHT22;5277;48.722;8.736;2023-02-04T08:17:15;7.50;99.90
10459;DHT22;5277;48.722;8.736;2023-02-04T08:19:40;7.50;99.90
10459;DHT22;5277;48.722;8.736;2023-02-04T08:22:06;7.50;99.90
10459;DHT22;5277;48.722;8.736;2023-02-04T08:24:31;7.50;99.90
10459;DHT22;5277;48.722;8.736;2023-02-04T08:26:57;7.50;99.90
10459;DHT22;5277;48.722;8.736;2023-02-04T08:29:23;7.50;99.90
10459;DHT22;5277;48.722;8.736;2023-02-04T08:31:50;7.50;99.90
10459;DHT22;5277;48.722;8.736;2023-02-04T08:34:16;7.50;99.90
10459;DHT22;5277;48.722;8.736;2023-02-04T08:36:41;7.50;99.90
10459;DHT22;5277;48.722;8.736;2023-02-04T08:39:09;7.50;99.90
10459;DHT22;5277;48.722;8.736;2023-02-04T08:41:34;7.50;99.90
10459;DHT22;5277;48.722;8.736;2023-02-04T08:44:00;7.50;99.90
10459;DHT22;5277;48.722;8.736;2023-02-04T08:46:25;7.60;99.90
10459;DHT22;5277;48.722;8.736;2023-02-04T08:48:51;7.60;99.90
10459;DHT22;5277;48.722;8.736;2023-02-04T08:51:17;7.70;99.90
10459;DHT22;5277;48.722;8.736;2023-02-04T08:53:42;7.70;99.90
10459;DHT22;5277;48.722;8.736;2023-02-04T08:56:08;7.80;99.90
10459;DHT22;5277;48.722;8.736;2023-02-04T08:58:35;7.70;99.90
10459;DHT22;5277;48.722;8.736;2023-02-04T09:01:00;7.80;99.90
10459;DHT22;5277;48.722;8.736;2023-02-04T09:03:26;7.80;99.90
10459;DHT22;5277;48.722;8.736;2023-02-04T09:05:52;7.90;99.90
10459;DHT22;5277;48.722;8.736;2023-02-04T09:08:17;7.90;99.90
10459;DHT22;5277;48.722;8.736;2023-02-04T09:10:43;7.90;99.90
10459;DHT22;5277;48.722;8.736;2023-02-04T09:13:08;7.90;99.90
10459;DHT22;5277;48.722;8.736;2023-02-04T09:15:36;8.00;99.90
10459;DHT22;5277;48.722;8.736;2023-02-04T09:18:02;8.00;99.90
10459;DHT22;5277;48.722;8.736;2023-02-04T09:20:39;8.00;99.90
10459;DHT22;5277;48.722;8.736;2023-02-04T09:23:05;8.10;99.90
10459;DHT22;5277;48.722;8.736;2023-02-04T09:25:35;8.10;99.90
10459;DHT22;5277;48.722;8.736;2023-02-04T09:28:00;8.20;99.90
10459;DHT22;5277;48.722;8.736;2023-02-04T09:30:26;8.20;99.90
10459;DHT22;5277;48.722;8.736;2023-02-04T09:32:51;8.30;99.90
10459;DHT22;5277;48.722;8.736;2023-02-04T09:35:17;8.40;99.90
10459;DHT22;5277;48.722;8.736;2023-02-04T09:37:42;8.50;99.90
10459;DHT22;5277;48.722;8.736;2023-02-04T09:40:13;8.50;99.90
10459;DHT22;5277;48.722;8.736;2023-02-04T09:42:42;8.60;99.90
10459;DHT22;5277;48.722;8.736;2023-02-04T09:45:14;8.60;99.90
10459;DHT22;5277;48.722;8.736;2023-02-04T09:47:41;8.60;99.90
10459;DHT22;5277;48.722;8.736;2023-02-04T09:50:15;8.70;99.90
10459;DHT22;5277;48.722;8.736;2023-02-04T09:52:41;8.80;99.90
10459;DHT22;5277;48.722;8.736;2023-02-04T09:55:19;8.80;99.90
10459;DHT22;5277;48.722;8.736;2023-02-04T09:57:46;8.80;99.90
10459;DHT22;5277;48.722;8.736;2023-02-04T10:00:20;8.80;99.90
10459;DHT22;5277;48.722;8.736;2023-02-04T10:02:46;8.80;99.90
10459;DHT22;5277;48.722;8.736;2023-02-04T10:05:14;8.90;99.90
10459;DHT22;5277;48.722;8.736;2023-02-04T10:07:40;8.90;99.90
10459;DHT22;5277;48.722;8.736;2023-02-04T10:10:13;8.80;99.90
10459;DHT22;5277;48.722;8.736;2023-02-04T10:12:40;8.90;99.90
10459;DHT22;5277;48.722;8.736;2023-02-04T10:15:11;9.00;99.90
10459;DHT22;5277;48.722;8.736;2023-02-04T10:17:38;8.90;99.90
10459;DHT22;5277;48.722;8.736;2023-02-04T10:20:04;8.80;99.90
10459;DHT22;5277;48.722;8.736;2023-02-04T10:22:29;8.90;99.90
10459;DHT22;5277;48.722;8.736;2023-02-04T10:24:55;9.00;99.90
10459;DHT22;5277;48.722;8.736;2023-02-04T10:27:20;9.00;99.90
10459;DHT22;5277;48.722;8.736;2023-02-04T10:29:57;9.00;99.90
10459;DHT22;5277;48.722;8.736;2023-02-04T10:32:26;8.90;99.90
10459;DHT22;5277;48.722;8.736;2023-02-04T10:34:57;8.90;99.90
10459;DHT22;5277;48.722;8.736;2023-02-04T10:37:23;8.90;99.90
10459;DHT22;5277;48.722;8.736;2023-02-04T10:39:49;8.90;99.90
10459;DHT22;5277;48.722;8.736;2023-02-04T10:44:48;8.90;99.90
10459;DHT22;5277;48.722;8.736;2023-02-04T10:47:20;9.00;99.90
10459;DHT22;5277;48.722;8.736;2023-02-04T10:52:31;9.20;99.90
10459;DHT22;5277;48.722;8.736;2023-02-04T10:54:58;9.30;99.90
10459;DHT22;5277;48.722;8.736;2023-02-04T10:57:26;9.30;99.90
10459;DHT22;5277;48.722;8.736;2023-02-04T10:59:56;9.40;99.90
10459;DHT22;5277;48.722;8.736;2023-02-04T11:02:39;9.50;99.90
10459;DHT22;5277;48.722;8.736;2023-02-04T11:07:38;9.50;99.90
10459;DHT22;5277;48.722;8.736;2023-02-04T11:10:32;9.50;99.90
10459;DHT22;5277;48.722;8.736;2023-02-04T11:13:04;9.60;99.90
10459;DHT22;5277;48.722;8.736;2023-02-04T11:15:40;9.50;99.90
10459;DHT22;5277;48.722;8.736;2023-02-04T11:20:48;9.70;99.90
10459;DHT22;5277;48.722;8.736;2023-02-04T11:28:43;9.70;99.90
10459;DHT22;5277;48.722;8.736;2023-02-04T11:39:21;9.90;99.90
10459;DHT22;5277;48.722;8.736;2023-02-04T11:41:50;9.80;99.90
10459;DHT22;5277;48.722;8.736;2023-02-04T11:44:16;9.80;99.90
10459;DHT22;5277;48.722;8.736;2023-02-04T11:46:49;9.80;99.90
10459;DHT22;5277;48.722;8.736;2023-02-04T11:49:18;9.60;99.90
10459;DHT22;5277;48.722;8.736;2023-02-04T11:51:44;9.40;99.90
10459;DHT22;5277;48.722;8.736;2023-02-04T11:54:12;9.30;99.90
10459;DHT22;5277;48.722;8.736;2023-02-04T11:56:38;9.30;99.90
10459;DHT22;5277;48.722;8.736;2023-02-04T11:59:03;9.20;99.90
10459;DHT22;5277;48.722;8.736;2023-02-04T12:01:31;9.10;99.90
10459;DHT22;5277;48.722;8.736;2023-02-04T12:04:02;9.10;99.90
10459;DHT22;5277;48.722;8.736;2023-02-04T12:06:30;9.00;99.90
10459;DHT22;5277;48.722;8.736;2023-02-04T12:09:27;9.00;99.90
10459;DHT22;5277;48.722;8.736;2023-02-04T12:11:58;9.00;99.90
10459;DHT22;5277;48.722;8.736;2023-02-04T12:14:35;9.00;99.90
10459;DHT22;5277;48.722;8.736;2023-02-04T12:17:20;9.10;99.90
10459;DHT22;5277;48.722;8.736;2023-02-04T12:19:46;9.00;99.90
10459;DHT22;5277;48.722;8.736;2023-02-04T12:22:12;9.00;99.90
10459;DHT22;5277;48.722;8.736;2023-02-04T12:24:39;9.10;99.90
10459;DHT22;5277;48.722;8.736;2023-02-04T12:27:04;9.10;99.90
10459;DHT22;5277;48.722;8.736;2023-02-04T12:29:30;9.10;99.90
10459;DHT22;5277;48.722;8.736;2023-02-04T12:31:55;9.20;99.90
10459;DHT22;5277;48.722;8.736;2023-02-04T12:34:21;9.20;99.90
10459;DHT22;5277;48.722;8.736;2023-02-04T12:36:46;9.30;99.90
10459;DHT22;5277;48.722;8.736;2023-02-04T12:39:12;9.30;99.90
10459;DHT22;5277;48.722;8.736;2023-02-04T12:41:47;9.40;99.90
10459;DHT22;5277;48.722;8.736;2023-02-04T12:44:12;9.40;99.90
10459;DHT22;5277;48.722;8.736;2023-02-04T12:46:39;9.50;99.90
10459;DHT22;5277;48.722;8.736;2023-02-04T12:49:05;9.50;99.90
10459;DHT22;5277;48.722;8.736;2023-02-04T12:51:30;9.60;99.90
10459;DHT22;5277;48.722;8.736;2023-02-04T12:53:57;9.70;99.90
10459;DHT22;5277;48.722;8.736;2023-02-04T12:56:23;9.70;99.90
10459;DHT22;5277;48.722;8.736;2023-02-04T12:58:48;9.80;99.90
10459;DHT22;5277;48.722;8.736;2023-02-04T13:01:14;9.90;99.90
10459;DHT22;5277;48.722;8.736;2023-02-04T13:03:39;10.00;99.90
10459;DHT22;5277;48.722;8.736;2023-02-04T13:06:05;10.00;99.90
10459;DHT22;5277;48.722;8.736;2023-02-04T13:08:30;10.00;99.90
10459;DHT22;5277;48.722;8.736;2023-02-04T13:10:56;10.00;99.90
10459;DHT22;5277;48.722;8.736;2023-02-04T13:13:22;10.00;99.90
10459;DHT22;5277;48.722;8.736;2023-02-04T13:15:47;10.00;99.90
10459;DHT22;5277;48.722;8.736;2023-02-04T13:18:13;9.90;99.90
10459;DHT22;5277;48.722;8.736;2023-02-04T13:20:40;9.80;99.90
10459;DHT22;5277;48.722;8.736;2023-02-04T13:23:06;9.80;99.90
10459;DHT22;5277;48.722;8.736;2023-02-04T13:25:32;9.70;99.90
10459;DHT22;5277;48.722;8.736;2023-02-04T13:27:58;9.70;99.90
10459;DHT22;5277;48.722;8.736;2023-02-04T13:30:23;9.70;99.90
10459;DHT22;5277;48.722;8.736;2023-02-04T13:32:49;9.70;99.90
10459;DHT22;5277;48.722;8.736;2023-02-04T13:35:14;9.60;99.90
10459;DHT22;5277;48.722;8.736;2023-02-04T13:37:40;9.60;99.90
10459;DHT22;5277;48.722;8.736;2023-02-04T13:40:18;9.70;99.90
10459;DHT22;5277;48.722;8.736;2023-02-04T13:42:44;9.70;99.90
10459;DHT22;5277;48.722;8.736;2023-02-04T13:45:09;9.70;99.90
10459;DHT22;5277;48.722;8.736;2023-02-04T13:47:37;9.70;99.90
10459;DHT22;5277;48.722;8.736;2023-02-04T13:50:03;9.60;99.90
10459;DHT22;5277;48.722;8.736;2023-02-04T13:52:29;9.60;99.90
10459;DHT22;5277;48.722;8.736;2023-02-04T13:54:54;9.60;99.90
10459;DHT22;5277;48.722;8.736;2023-02-04T13:57:20;9.50;99.90
10459;DHT22;5277;48.722;8.736;2023-02-04T13:59:47;9.50;99.90
10459;DHT22;5277;48.722;8.736;2023-02-04T14:02:12;9.50;99.90
10459;DHT22;5277;48.722;8.736;2023-02-04T14:04:38;9.40;99.90
10459;DHT22;5277;48.722;8.736;2023-02-04T14:07:03;9.30;99.90
10459;DHT22;5277;48.722;8.736;2023-02-04T14:09:29;9.20;99.90
10459;DHT22;5277;48.722;8.736;2023-02-04T14:11:55;9.20;99.90
10459;DHT22;5277;48.722;8.736;2023-02-04T14:14:20;9.10;99.90
10459;DHT22;5277;48.722;8.736;2023-02-04T14:16:46;9.00;99.90
10459;DHT22;5277;48.722;8.736;2023-02-04T14:19:11;9.00;99.90
10459;DHT22;5277;48.722;8.736;2023-02-04T14:21:38;8.90;99.90
10459;DHT22;5277;48.722;8.736;2023-02-04T14:24:04;8.90;99.90
10459;DHT22;5277;48.722;8.736;2023-02-04T14:26:29;8.80;99.90
10459;DHT22;5277;48.722;8.736;2023-02-04T14:28:55;8.70;99.90
10459;DHT22;5277;48.722;8.736;2023-02-04T14:31:21;8.60;99.90
10459;DHT22;5277;48.722;8.736;2023-02-04T14:33:47;8.60;99.90
10459;DHT22;5277;48.722;8.736;2023-02-04T14:36:14;8.50;99.90
10459;DHT22;5277;48.722;8.736;2023-02-04T14:38:40;8.40;99.90
10459;DHT22;5277;48.722;8.736;2023-02-04T14:41:24;8.30;99.90
10459;DHT22;5277;48.722;8.736;2023-02-04T14:43:51;8.20;99.90
10459;DHT22;5277;48.722;8.736;2023-02-04T14:46:18;8.00;99.90
10459;DHT22;5277;48.722;8.736;2023-02-04T14:48:43;7.90;99.90
10459;DHT22;5277;48.722;8.736;2023-02-04T14:51:10;7.70;99.90
10459;DHT22;5277;48.722;8.736;2023-02-04T14:53:36;7.60;99.90
10459;DHT22;5277;48.722;8.736;2023-02-04T14:56:01;7.40;99.90
10459;DHT22;5277;48.722;8.736;2023-02-04T14:58:27;7.30;99.90
10459;DHT22;5277;48.722;8.736;2023-02-04T15:00:52;7.10;99.90
10459;DHT22;5277;48.722;8.736;2023-02-04T15:03:18;7.00;99.90
10459;DHT22;5277;48.722;8.736;2023-02-04T15:05:44;6.90;99.90
10459;DHT22;5277;48.722;8.736;2023-02-04T15:08:09;7.00;99.90
10459;DHT22;5277;48.722;8.736;2023-02-04T15:10:35;6.90;99.90
10459;DHT22;5277;48.722;8.736;2023-02-04T15:13:01;6.80;99.90
10459;DHT22;5277;48.722;8.736;2023-02-04T15:15:26;6.80;99.90
10459;DHT22;5277;48.722;8.736;2023-02-04T15:17:53;6.80;99.90
10459;DHT22;5277;48.722;8.736;2023-02-04T15:20:18;6.80;99.90
10459;DHT22;5277;48.722;8.736;2023-02-04T15:22:44;6.80;99.90
10459;DHT22;5277;48.722;8.736;2023-02-04T15:25:13;6.80;99.90
10459;DHT22;5277;48.722;8.736;2023-02-04T15:27:38;6.80;99.90
10459;DHT22;5277;48.722;8.736;2023-02-04T15:30:04;6.80;99.90
10459;DHT22;5277;48.722;8.736;2023-02-04T15:32:30;6.80;99.90
10459;DHT22;5277;48.722;8.736;2023-02-04T15:34:56;6.80;99.90
10459;DHT22;5277;48.722;8.736;2023-02-04T15:37:21;6.80;99.90
10459;DHT22;5277;48.722;8.736;2023-02-04T15:39:47;6.90;99.90
10459;DHT22;5277;48.722;8.736;2023-02-04T15:42:12;6.90;99.90
10459;DHT22;5277;48.722;8.736;2023-02-04T15:44:38;7.00;99.90
10459;DHT22;5277;48.722;8.736;2023-02-04T15:47:04;7.10;99.90
10459;DHT22;5277;48.722;8.736;2023-02-04T15:49:30;7.10;99.90
10459;DHT22;5277;48.722;8.736;2023-02-04T15:51:55;7.10;99.90
10459;DHT22;5277;48.722;8.736;2023-02-04T15:54:22;7.20;99.90
10459;DHT22;5277;48.722;8.736;2023-02-04T15:56:47;7.30;99.90
10459;DHT22;5277;48.722;8.736;2023-02-04T15:59:16;7.30;99.90
10459;DHT22;5277;48.722;8.736;2023-02-04T16:01:41;7.40;99.90
10459;DHT22;5277;48.722;8.736;2023-02-04T16:04:07;7.40;99.90
10459;DHT22;5277;48.722;8.736;2023-02-04T16:06:34;7.40;99.90
10459;DHT22;5277;48.722;8.736;2023-02-04T16:08:59;7.40;99.90
10459;DHT22;5277;48.722;8.736;2023-02-04T16:11:25;7.30;99.90
10459;DHT22;5277;48.722;8.736;2023-02-04T16:14:00;7.20;99.90
10459;DHT22;5277;48.722;8.736;2023-02-04T16:16:26;7.30;99.90
10459;DHT22;5277;48.722;8.736;2023-02-04T16:18:52;7.30;99.90
10459;DHT22;5277;48.722;8.736;2023-02-04T16:21:17;7.40;99.90
10459;DHT22;5277;48.722;8.736;2023-02-04T16:23:43;7.40;99.90